sensor_id;sensor_type;location;lat;lon;timestamp;P1;durP1;ratioP1;P2;durP2;ratioP2
35891;SDS011;21993;42.672;23.296;2023-01-06T00:01:08;9.43;;;5.83;;
35891;SDS011;21993;42.672;23.296;2023-01-06T00:03:38;9.57;;;5.90;;
35891;SDS011;21993;42.672;23.296;2023-01-06T00:06:04;9.07;;;4.90;;
35891;SDS011;21993;42.672;23.296;2023-01-06T00:08:32;10.30;;;6.27;;
35891;SDS011;21993;42.672;23.296;2023-01-06T00:10:58;9.37;;;5.93;;
35891;SDS011;21993;42.672;23.296;2023-01-06T00:13:29;14.50;;;6.83;;
35891;SDS011;21993;42.672;23.296;2023-01-06T00:15:55;8.43;;;5.53;;
35891;SDS011;21993;42.672;23.296;2023-01-06T00:18:20;10.93;;;5.70;;
35891;SDS011;21993;42.672;23.296;2023-01-06T00:20:45;10.00;;;6.00;;
35891;SDS011;21993;42.672;23.296;2023-01-06T00:23:11;10.80;;;6.13;;
35891;SDS011;21993;42.672;23.296;2023-01-06T00:25:36;9.43;;;5.80;;
35891;SDS011;21993;42.672;23.296;2023-01-06T00:28:02;10.70;;;5.63;;
35891;SDS011;21993;42.672;23.296;2023-01-06T00:30:27;11.00;;;5.77;;
35891;SDS011;21993;42.672;23.296;2023-01-06T00:32:52;9.50;;;6.07;;
35891;SDS011;21993;42.672;23.296;2023-01-06T00:35:18;10.10;;;6.00;;
35891;SDS011;21993;42.672;23.296;2023-01-06T00:37:43;11.33;;;6.00;;
35891;SDS011;21993;42.672;23.296;2023-01-06T00:40:09;8.00;;;5.77;;
35891;SDS011;21993;42.672;23.296;2023-01-06T00:42:34;8.93;;;5.63;;
35891;SDS011;21993;42.672;23.296;2023-01-06T00:45:00;9.60;;;6.03;;
35891;SDS011;21993;42.672;23.296;2023-01-06T00:47:25;20.57;;;6.03;;
35891;SDS011;21993;42.672;23.296;2023-01-06T00:49:50;7.97;;;4.50;;
35891;SDS011;21993;42.672;23.296;2023-01-06T00:52:16;8.43;;;5.60;;
35891;SDS011;21993;42.672;23.296;2023-01-06T00:54:41;7.07;;;4.60;;
35891;SDS011;21993;42.672;23.296;2023-01-06T00:57:07;11.20;;;4.30;;
35891;SDS011;21993;42.672;23.296;2023-01-06T00:59:33;6.27;;;4.27;;
35891;SDS011;21993;42.672;23.296;2023-01-06T01:01:58;4.83;;;3.63;;
35891;SDS011;21993;42.672;23.296;2023-01-06T01:04:24;6.73;;;4.10;;
35891;SDS011;21993;42.672;23.296;2023-01-06T01:06:50;5.50;;;3.63;;
35891;SDS011;21993;42.672;23.296;2023-01-06T01:09:21;6.53;;;4.33;;
35891;SDS011;21993;42.672;23.296;2023-01-06T01:11:51;5.67;;;4.37;;
35891;SDS011;21993;42.672;23.296;2023-01-06T01:14:39;7.00;;;4.47;;
35891;SDS011;21993;42.672;23.296;2023-01-06T01:17:07;6.23;;;4.37;;
35891;SDS011;21993;42.672;23.296;2023-01-06T01:19:34;6.00;;;4.30;;
35891;SDS011;21993;42.672;23.296;2023-01-06T01:21:59;8.17;;;5.10;;
35891;SDS011;21993;42.672;23.296;2023-01-06T01:24:25;6.23;;;4.17;;
35891;SDS011;21993;42.672;23.296;2023-01-06T01:26:50;6.90;;;3.77;;
35891;SDS011;21993;42.672;23.296;2023-01-06T01:29:16;7.23;;;4.40;;
35891;SDS011;21993;42.672;23.296;2023-01-06T01:31:43;9.27;;;4.27;;
35891;SDS011;21993;42.672;23.296;2023-01-06T01:34:09;5.13;;;3.70;;
35891;SDS011;21993;42.672;23.296;2023-01-06T01:36:35;7.43;;;4.00;;
35891;SDS011;21993;42.672;23.296;2023-01-06T01:39:01;6.93;;;4.17;;
35891;SDS011;21993;42.672;23.296;2023-01-06T01:41:27;6.03;;;3.87;;
35891;SDS011;21993;42.672;23.296;2023-01-06T01:44:00;7.13;;;3.77;;
35891;SDS011;21993;42.672;23.296;2023-01-06T01:46:46;4.50;;;3.37;;
35891;SDS011;21993;42.672;23.296;2023-01-06T01:49:24;5.43;;;3.77;;
35891;SDS011;21993;42.672;23.296;2023-01-06T01:51:53;6.30;;;4.27;;
35891;SDS011;21993;42.672;23.296;2023-01-06T01:54:22;7.07;;;3.30;;
35891;SDS011;21993;42.672;23.296;2023-01-06T01:56:52;5.47;;;3.37;;
35891;SDS011;21993;42.672;23.296;2023-01-06T01:59:23;5.27;;;3.37;;
35891;SDS011;21993;42.672;23.296;2023-01-06T02:01:52;7.77;;;3.43;;
35891;SDS011;21993;42.672;23.296;2023-01-06T02:04:18;3.97;;;3.23;;
35891;SDS011;21993;42.672;23.296;2023-01-06T02:06:46;5.07;;;3.23;;
35891;SDS011;21993;42.672;23.296;2023-01-06T02:09:21;5.17;;;4.07;;
35891;SDS011;21993;42.672;23.296;2023-01-06T02:11:51;8.03;;;4.77;;
35891;SDS011;21993;42.672;23.296;2023-01-06T02:14:23;5.30;;;3.30;;
35891;SDS011;21993;42.672;23.296;2023-01-06T02:27:34;3.87;;;2.80;;
35891;SDS011;21993;42.672;23.296;2023-01-06T02:32:53;5.40;;;3.10;;
35891;SDS011;21993;42.672;23.296;2023-01-06T02:52:14;4.33;;;2.80;;
35891;SDS011;21993;42.672;23.296;2023-01-06T03:00:39;6.50;;;3.10;;
35891;SDS011;21993;42.672;23.296;2023-01-06T03:02:46;3.53;;;3.13;;
35891;SDS011;21993;42.672;23.296;2023-01-06T03:05:18;3.73;;;3.17;;
35891;SDS011;21993;42.672;23.296;2023-01-06T03:07:47;4.73;;;3.40;;
35891;SDS011;21993;42.672;23.296;2023-01-06T03:10:13;4.40;;;2.93;;
35891;SDS011;21993;42.672;23.296;2023-01-06T03:12:44;4.87;;;2.83;;
35891;SDS011;21993;42.672;23.296;2023-01-06T03:15:15;4.33;;;3.03;;
35891;SDS011;21993;42.672;23.296;2023-01-06T03:17:41;4.53;;;3.10;;
35891;SDS011;21993;42.672;23.296;2023-01-06T03:20:06;4.03;;;3.00;;
35891;SDS011;21993;42.672;23.296;2023-01-06T03:22:32;3.43;;;2.80;;
35891;SDS011;21993;42.672;23.296;2023-01-06T03:25:02;10.80;;;3.30;;
35891;SDS011;21993;42.672;23.296;2023-01-06T03:27:29;9.13;;;3.83;;
35891;SDS011;21993;42.672;23.296;2023-01-06T03:29:54;8.17;;;3.47;;
35891;SDS011;21993;42.672;23.296;2023-01-06T03:40:26;3.70;;;2.60;;
35891;SDS011;21993;42.672;23.296;2023-01-06T03:42:59;4.60;;;2.80;;
35891;SDS011;21993;42.672;23.296;2023-01-06T03:56:44;4.00;;;2.27;;
35891;SDS011;21993;42.672;23.296;2023-01-06T03:59:16;3.37;;;2.73;;
35891;SDS011;21993;42.672;23.296;2023-01-06T04:01:44;3.63;;;3.30;;
35891;SDS011;21993;42.672;23.296;2023-01-06T04:04:11;4.80;;;2.97;;
35891;SDS011;21993;42.672;23.296;2023-01-06T04:06:37;5.23;;;2.80;;
35891;SDS011;21993;42.672;23.296;2023-01-06T04:09:02;4.13;;;2.70;;
35891;SDS011;21993;42.672;23.296;2023-01-06T04:11:28;6.33;;;4.13;;
35891;SDS011;21993;42.672;23.296;2023-01-06T04:14:12;5.83;;;3.07;;
35891;SDS011;21993;42.672;23.296;2023-01-06T04:16:37;9.13;;;3.43;;
35891;SDS011;21993;42.672;23.296;2023-01-06T04:19:03;6.07;;;2.93;;
35891;SDS011;21993;42.672;23.296;2023-01-06T04:21:28;4.07;;;2.93;;
35891;SDS011;21993;42.672;23.296;2023-01-06T04:23:54;4.43;;;3.17;;
35891;SDS011;21993;42.672;23.296;2023-01-06T04:26:19;4.33;;;2.97;;
35891;SDS011;21993;42.672;23.296;2023-01-06T04:28:45;5.53;;;3.23;;
35891;SDS011;21993;42.672;23.296;2023-01-06T04:31:10;4.93;;;3.23;;
35891;SDS011;21993;42.672;23.296;2023-01-06T04:33:36;5.83;;;2.90;;
35891;SDS011;21993;42.672;23.296;2023-01-06T04:36:01;5.07;;;3.17;;
35891;SDS011;21993;42.672;23.296;2023-01-06T04:38:27;7.33;;;3.10;;
35891;SDS011;21993;42.672;23.296;2023-01-06T04:40:52;3.50;;;2.73;;
35891;SDS011;21993;42.672;23.296;2023-01-06T04:43:17;3.10;;;2.80;;
35891;SDS011;21993;42.672;23.296;2023-01-06T04:45:44;6.17;;;2.67;;
35891;SDS011;21993;42.672;23.296;2023-01-06T04:48:10;3.77;;;2.63;;
35891;SDS011;21993;42.672;23.296;2023-01-06T04:50:36;3.53;;;2.70;;
35891;SDS011;21993;42.672;23.296;2023-01-06T04:53:02;5.23;;;2.83;;
35891;SDS011;21993;42.672;23.296;2023-01-06T04:55:29;3.37;;;2.60;;
35891;SDS011;21993;42.672;23.296;2023-01-06T04:57:54;3.53;;;2.43;;
35891;SDS011;21993;42.672;23.296;2023-01-06T05:00:20;5.73;;;2.83;;
35891;SDS011;21993;42.672;23.296;2023-01-06T05:02:45;4.87;;;2.57;;
35891;SDS011;21993;42.672;23.296;2023-01-06T05:05:12;4.10;;;3.53;;
35891;SDS011;21993;42.672;23.296;2023-01-06T05:07:37;2.60;;;2.40;;
35891;SDS011;21993;42.672;23.296;2023-01-06T05:10:05;5.57;;;2.60;;
35891;SDS011;21993;42.672;23.296;2023-01-06T05:12:32;4.97;;;2.77;;
35891;SDS011;21993;42.672;23.296;2023-01-06T05:14:58;5.53;;;2.43;;
35891;SDS011;21993;42.672;23.296;2023-01-06T05:17:24;3.70;;;2.77;;
35891;SDS011;21993;42.672;23.296;2023-01-06T05:19:49;2.40;;;2.20;;
35891;SDS011;21993;42.672;23.296;2023-01-06T05:22:15;2.93;;;2.73;;
35891;SDS011;21993;42.672;23.296;2023-01-06T05:24:40;3.50;;;2.67;;
35891;SDS011;21993;42.672;23.296;2023-01-06T05:27:06;4.17;;;2.60;;
35891;SDS011;21993;42.672;23.296;2023-01-06T05:29:32;3.80;;;2.53;;
35891;SDS011;21993;42.672;23.296;2023-01-06T05:31:57;2.97;;;2.67;;
35891;SDS011;21993;42.672;23.296;2023-01-06T05:34:23;5.53;;;2.53;;
35891;SDS011;21993;42.672;23.296;2023-01-06T05:36:48;3.90;;;3.00;;
35891;SDS011;21993;42.672;23.296;2023-01-06T05:39:13;4.40;;;3.17;;
35891;SDS011;21993;42.672;23.296;2023-01-06T05:41:39;8.13;;;3.23;;
35891;SDS011;21993;42.672;23.296;2023-01-06T05:44:04;3.30;;;2.60;;
35891;SDS011;21993;42.672;23.296;2023-01-06T05:46:30;3.77;;;2.80;;
35891;SDS011;21993;42.672;23.296;2023-01-06T05:48:55;3.33;;;2.60;;
35891;SDS011;21993;42.672;23.296;2023-01-06T05:51:21;3.47;;;2.70;;
35891;SDS011;21993;42.672;23.296;2023-01-06T05:53:46;6.23;;;3.03;;
35891;SDS011;21993;42.672;23.296;2023-01-06T05:56:14;3.27;;;2.40;;
35891;SDS011;21993;42.672;23.296;2023-01-06T05:58:45;4.20;;;2.80;;
35891;SDS011;21993;42.672;23.296;2023-01-06T06:01:19;4.97;;;3.27;;
35891;SDS011;21993;42.672;23.296;2023-01-06T06:03:49;4.70;;;2.63;;
35891;SDS011;21993;42.672;23.296;2023-01-06T06:06:16;5.20;;;2.70;;
35891;SDS011;21993;42.672;23.296;2023-01-06T06:08:43;3.30;;;2.73;;
35891;SDS011;21993;42.672;23.296;2023-01-06T06:11:09;5.57;;;2.33;;
35891;SDS011;21993;42.672;23.296;2023-01-06T06:13:36;3.07;;;2.33;;
35891;SDS011;21993;42.672;23.296;2023-01-06T06:16:09;4.10;;;2.60;;
35891;SDS011;21993;42.672;23.296;2023-01-06T06:18:36;11.97;;;2.80;;
35891;SDS011;21993;42.672;23.296;2023-01-06T06:21:07;5.30;;;2.87;;
35891;SDS011;21993;42.672;23.296;2023-01-06T06:23:33;4.63;;;3.03;;
35891;SDS011;21993;42.672;23.296;2023-01-06T06:25:59;4.53;;;2.77;;
35891;SDS011;21993;42.672;23.296;2023-01-06T06:28:24;3.17;;;2.57;;
35891;SDS011;21993;42.672;23.296;2023-01-06T06:30:49;2.30;;;2.00;;
35891;SDS011;21993;42.672;23.296;2023-01-06T06:33:15;5.00;;;2.30;;
35891;SDS011;21993;42.672;23.296;2023-01-06T06:35:40;3.50;;;3.00;;
35891;SDS011;21993;42.672;23.296;2023-01-06T06:38:06;5.50;;;2.77;;
35891;SDS011;21993;42.672;23.296;2023-01-06T06:40:31;3.90;;;2.60;;
35891;SDS011;21993;42.672;23.296;2023-01-06T06:42:56;3.80;;;2.43;;
35891;SDS011;21993;42.672;23.296;2023-01-06T06:45:22;4.63;;;2.73;;
35891;SDS011;21993;42.672;23.296;2023-01-06T06:47:47;6.13;;;2.80;;
35891;SDS011;21993;42.672;23.296;2023-01-06T06:50:13;4.20;;;2.40;;
35891;SDS011;21993;42.672;23.296;2023-01-06T06:52:38;6.73;;;2.40;;
35891;SDS011;21993;42.672;23.296;2023-01-06T06:55:04;3.33;;;2.50;;
35891;SDS011;21993;42.672;23.296;2023-01-06T06:57:30;4.53;;;2.10;;
35891;SDS011;21993;42.672;23.296;2023-01-06T06:59:55;5.30;;;2.30;;
35891;SDS011;21993;42.672;23.296;2023-01-06T07:02:21;3.57;;;2.67;;
35891;SDS011;21993;42.672;23.296;2023-01-06T07:04:46;5.37;;;2.60;;
35891;SDS011;21993;42.672;23.296;2023-01-06T07:07:11;7.43;;;2.90;;
35891;SDS011;21993;42.672;23.296;2023-01-06T07:09:37;5.63;;;2.90;;
35891;SDS011;21993;42.672;23.296;2023-01-06T07:12:02;4.33;;;2.20;;
35891;SDS011;21993;42.672;23.296;2023-01-06T07:14:28;3.07;;;2.70;;
35891;SDS011;21993;42.672;23.296;2023-01-06T07:16:53;3.77;;;2.27;;
35891;SDS011;21993;42.672;23.296;2023-01-06T07:19:19;3.40;;;2.30;;
35891;SDS011;21993;42.672;23.296;2023-01-06T07:21:44;3.43;;;2.17;;
35891;SDS011;21993;42.672;23.296;2023-01-06T07:24:10;3.30;;;1.93;;
35891;SDS011;21993;42.672;23.296;2023-01-06T07:26:35;6.30;;;2.43;;
35891;SDS011;21993;42.672;23.296;2023-01-06T07:29:00;2.37;;;2.10;;
35891;SDS011;21993;42.672;23.296;2023-01-06T07:31:26;4.10;;;2.93;;
35891;SDS011;21993;42.672;23.296;2023-01-06T07:33:51;4.17;;;2.33;;
35891;SDS011;21993;42.672;23.296;2023-01-06T07:36:17;3.07;;;2.17;;
35891;SDS011;21993;42.672;23.296;2023-01-06T07:38:42;4.77;;;2.37;;
35891;SDS011;21993;42.672;23.296;2023-01-06T07:41:07;3.63;;;2.10;;
35891;SDS011;21993;42.672;23.296;2023-01-06T07:43:33;2.73;;;2.20;;
35891;SDS011;21993;42.672;23.296;2023-01-06T07:45:58;9.10;;;2.30;;
35891;SDS011;21993;42.672;23.296;2023-01-06T07:48:24;3.00;;;2.13;;
35891;SDS011;21993;42.672;23.296;2023-01-06T07:50:49;3.13;;;2.30;;
35891;SDS011;21993;42.672;23.296;2023-01-06T07:53:14;7.37;;;2.50;;
35891;SDS011;21993;42.672;23.296;2023-01-06T07:55:40;6.43;;;2.80;;
35891;SDS011;21993;42.672;23.296;2023-01-06T07:58:06;2.87;;;2.27;;
35891;SDS011;21993;42.672;23.296;2023-01-06T08:00:34;4.77;;;2.50;;
35891;SDS011;21993;42.672;23.296;2023-01-06T08:03:03;3.03;;;2.30;;
35891;SDS011;21993;42.672;23.296;2023-01-06T08:05:30;3.23;;;2.40;;
35891;SDS011;21993;42.672;23.296;2023-01-06T08:07:55;4.37;;;2.40;;
35891;SDS011;21993;42.672;23.296;2023-01-06T08:10:21;3.10;;;2.30;;
35891;SDS011;21993;42.672;23.296;2023-01-06T08:12:46;3.67;;;2.60;;
35891;SDS011;21993;42.672;23.296;2023-01-06T08:15:12;3.93;;;2.23;;
35891;SDS011;21993;42.672;23.296;2023-01-06T08:17:37;2.20;;;2.00;;
35891;SDS011;21993;42.672;23.296;2023-01-06T08:20:03;2.90;;;2.00;;
35891;SDS011;21993;42.672;23.296;2023-01-06T08:22:28;2.80;;;2.23;;
35891;SDS011;21993;42.672;23.296;2023-01-06T08:24:54;4.53;;;2.10;;
35891;SDS011;21993;42.672;23.296;2023-01-06T08:27:19;3.50;;;3.20;;
35891;SDS011;21993;42.672;23.296;2023-01-06T08:29:45;2.33;;;2.10;;
35891;SDS011;21993;42.672;23.296;2023-01-06T08:32:10;3.20;;;2.30;;
35891;SDS011;21993;42.672;23.296;2023-01-06T08:34:36;3.27;;;2.27;;
35891;SDS011;21993;42.672;23.296;2023-01-06T08:37:02;3.73;;;2.10;;
35891;SDS011;21993;42.672;23.296;2023-01-06T08:39:27;4.83;;;2.20;;
35891;SDS011;21993;42.672;23.296;2023-01-06T08:41:52;3.07;;;2.07;;
35891;SDS011;21993;42.672;23.296;2023-01-06T08:44:18;2.40;;;2.20;;
35891;SDS011;21993;42.672;23.296;2023-01-06T08:46:43;4.23;;;2.03;;
35891;SDS011;21993;42.672;23.296;2023-01-06T08:49:09;4.23;;;1.80;;
35891;SDS011;21993;42.672;23.296;2023-01-06T08:51:34;4.70;;;2.13;;
35891;SDS011;21993;42.672;23.296;2023-01-06T08:54:00;3.13;;;2.40;;
35891;SDS011;21993;42.672;23.296;2023-01-06T08:56:27;3.43;;;2.27;;
35891;SDS011;21993;42.672;23.296;2023-01-06T08:58:59;2.27;;;1.73;;
35891;SDS011;21993;42.672;23.296;2023-01-06T09:01:33;2.20;;;1.80;;
35891;SDS011;21993;42.672;23.296;2023-01-06T09:04:00;2.83;;;1.60;;
35891;SDS011;21993;42.672;23.296;2023-01-06T09:06:27;3.70;;;2.07;;
35891;SDS011;21993;42.672;23.296;2023-01-06T09:08:53;2.50;;;1.97;;
35891;SDS011;21993;42.672;23.296;2023-01-06T09:11:19;4.37;;;2.80;;
35891;SDS011;21993;42.672;23.296;2023-01-06T09:13:45;4.17;;;2.00;;
35891;SDS011;21993;42.672;23.296;2023-01-06T09:16:11;5.63;;;2.10;;
35891;SDS011;21993;42.672;23.296;2023-01-06T09:18:37;3.63;;;1.40;;
35891;SDS011;21993;42.672;23.296;2023-01-06T09:21:02;2.17;;;1.63;;
35891;SDS011;21993;42.672;23.296;2023-01-06T09:23:29;2.70;;;1.77;;
35891;SDS011;21993;42.672;23.296;2023-01-06T09:25:54;2.57;;;1.80;;
35891;SDS011;21993;42.672;23.296;2023-01-06T09:28:20;3.10;;;1.70;;
35891;SDS011;21993;42.672;23.296;2023-01-06T09:30:46;4.57;;;1.67;;
35891;SDS011;21993;42.672;23.296;2023-01-06T09:33:15;3.77;;;3.10;;
35891;SDS011;21993;42.672;23.296;2023-01-06T09:35:44;1.67;;;1.40;;
35891;SDS011;21993;42.672;23.296;2023-01-06T09:38:11;3.20;;;1.87;;
35891;SDS011;21993;42.672;23.296;2023-01-06T09:46:24;1.50;;;1.40;;
35891;SDS011;21993;42.672;23.296;2023-01-06T09:49:02;2.10;;;1.70;;
35891;SDS011;21993;42.672;23.296;2023-01-06T09:51:38;2.67;;;1.80;;
35891;SDS011;21993;42.672;23.296;2023-01-06T09:54:23;2.10;;;1.80;;
35891;SDS011;21993;42.672;23.296;2023-01-06T09:56:55;4.20;;;1.60;;
35891;SDS011;21993;42.672;23.296;2023-01-06T09:59:43;2.17;;;1.33;;
35891;SDS011;21993;42.672;23.296;2023-01-06T10:02:20;1.97;;;1.63;;
35891;SDS011;21993;42.672;23.296;2023-01-06T10:04:51;3.80;;;1.40;;
35891;SDS011;21993;42.672;23.296;2023-01-06T10:09:58;1.67;;;1.50;;
35891;SDS011;21993;42.672;23.296;2023-01-06T10:12:30;1.77;;;1.60;;
35891;SDS011;21993;42.672;23.296;2023-01-06T10:25:49;9.70;;;1.50;;
35891;SDS011;21993;42.672;23.296;2023-01-06T10:30:55;2.73;;;1.60;;
35891;SDS011;21993;42.672;23.296;2023-01-06T10:35:56;1.77;;;1.60;;
35891;SDS011;21993;42.672;23.296;2023-01-06T10:38:27;3.53;;;1.60;;
35891;SDS011;21993;42.672;23.296;2023-01-06T10:41:01;1.90;;;1.60;;
35891;SDS011;21993;42.672;23.296;2023-01-06T10:43:37;3.40;;;1.60;;
35891;SDS011;21993;42.672;23.296;2023-01-06T10:46:02;2.03;;;1.73;;
35891;SDS011;21993;42.672;23.296;2023-01-06T10:48:28;4.50;;;1.90;;
35891;SDS011;21993;42.672;23.296;2023-01-06T10:50:56;3.43;;;2.20;;
35891;SDS011;21993;42.672;23.296;2023-01-06T10:53:21;3.73;;;2.00;;
35891;SDS011;21993;42.672;23.296;2023-01-06T10:56:20;3.43;;;1.90;;
35891;SDS011;21993;42.672;23.296;2023-01-06T10:58:41;2.23;;;1.60;;
35891;SDS011;21993;42.672;23.296;2023-01-06T11:01:15;1.77;;;1.63;;
35891;SDS011;21993;42.672;23.296;2023-01-06T11:03:48;4.93;;;1.77;;
35891;SDS011;21993;42.672;23.296;2023-01-06T11:06:48;2.90;;;1.80;;
35891;SDS011;21993;42.672;23.296;2023-01-06T11:09:31;4.70;;;2.13;;
35891;SDS011;21993;42.672;23.296;2023-01-06T11:12:02;4.37;;;2.03;;
35891;SDS011;21993;42.672;23.296;2023-01-06T11:14:36;3.37;;;2.00;;
35891;SDS011;21993;42.672;23.296;2023-01-06T11:17:08;2.63;;;2.20;;
35891;SDS011;21993;42.672;23.296;2023-01-06T11:19:43;3.20;;;1.93;;
35891;SDS011;21993;42.672;23.296;2023-01-06T11:24:58;3.33;;;2.23;;
35891;SDS011;21993;42.672;23.296;2023-01-06T11:27:24;4.47;;;1.90;;
35891;SDS011;21993;42.672;23.296;2023-01-06T11:29:49;6.93;;;2.37;;
35891;SDS011;21993;42.672;23.296;2023-01-06T11:32:15;7.50;;;3.93;;
35891;SDS011;21993;42.672;23.296;2023-01-06T11:34:53;4.00;;;1.80;;
35891;SDS011;21993;42.672;23.296;2023-01-06T11:39:55;1.73;;;1.63;;
35891;SDS011;21993;42.672;23.296;2023-01-06T11:42:21;2.23;;;1.80;;
35891;SDS011;21993;42.672;23.296;2023-01-06T11:44:47;3.40;;;1.77;;
35891;SDS011;21993;42.672;23.296;2023-01-06T11:47:16;2.20;;;2.00;;
35891;SDS011;21993;42.672;23.296;2023-01-06T11:49:49;3.47;;;2.10;;
35891;SDS011;21993;42.672;23.296;2023-01-06T11:52:28;5.80;;;2.10;;
35891;SDS011;21993;42.672;23.296;2023-01-06T12:05:42;3.00;;;1.90;;
35891;SDS011;21993;42.672;23.296;2023-01-06T12:11:49;5.97;;;2.00;;
35891;SDS011;21993;42.672;23.296;2023-01-06T12:14:20;5.53;;;1.90;;
35891;SDS011;21993;42.672;23.296;2023-01-06T12:19:19;4.00;;;1.93;;
35891;SDS011;21993;42.672;23.296;2023-01-06T12:21:51;7.83;;;5.03;;
35891;SDS011;21993;42.672;23.296;2023-01-06T12:24:17;7.30;;;2.40;;
35891;SDS011;21993;42.672;23.296;2023-01-06T12:26:45;4.50;;;2.03;;
35891;SDS011;21993;42.672;23.296;2023-01-06T12:29:14;4.03;;;1.90;;
35891;SDS011;21993;42.672;23.296;2023-01-06T12:32:06;3.13;;;2.13;;
35891;SDS011;21993;42.672;23.296;2023-01-06T12:34:39;5.17;;;2.30;;
35891;SDS011;21993;42.672;23.296;2023-01-06T12:39:54;5.20;;;2.00;;
35891;SDS011;21993;42.672;23.296;2023-01-06T12:49:38;3.83;;;2.20;;
35891;SDS011;21993;42.672;23.296;2023-01-06T12:51:53;4.67;;;1.97;;
35891;SDS011;21993;42.672;23.296;2023-01-06T12:54:31;2.37;;;2.10;;
35891;SDS011;21993;42.672;23.296;2023-01-06T13:17:11;5.07;;;2.57;;
35891;SDS011;21993;42.672;23.296;2023-01-06T13:22:41;2.73;;;2.27;;
35891;SDS011;21993;42.672;23.296;2023-01-06T13:36:36;2.87;;;2.37;;
35891;SDS011;21993;42.672;23.296;2023-01-06T13:39:09;3.60;;;2.23;;
35891;SDS011;21993;42.672;23.296;2023-01-06T13:41:37;3.63;;;2.50;;
35891;SDS011;21993;42.672;23.296;2023-01-06T13:44:05;5.13;;;2.50;;
35891;SDS011;21993;42.672;23.296;2023-01-06T13:46:39;3.37;;;2.47;;
35891;SDS011;21993;42.672;23.296;2023-01-06T13:49:05;4.60;;;2.30;;
35891;SDS011;21993;42.672;23.296;2023-01-06T13:51:35;4.30;;;2.63;;
35891;SDS011;21993;42.672;23.296;2023-01-06T13:54:04;3.87;;;2.60;;
35891;SDS011;21993;42.672;23.296;2023-01-06T13:56:33;3.47;;;2.40;;
35891;SDS011;21993;42.672;23.296;2023-01-06T13:59:19;5.50;;;2.87;;
35891;SDS011;21993;42.672;23.296;2023-01-06T14:01:46;3.07;;;2.40;;
35891;SDS011;21993;42.672;23.296;2023-01-06T14:07:07;4.77;;;3.27;;
35891;SDS011;21993;42.672;23.296;2023-01-06T14:09:35;3.77;;;2.53;;
35891;SDS011;21993;42.672;23.296;2023-01-06T14:12:20;3.30;;;2.70;;
35891;SDS011;21993;42.672;23.296;2023-01-06T14:15:03;5.87;;;2.97;;
35891;SDS011;21993;42.672;23.296;2023-01-06T14:17:38;4.90;;;2.57;;
35891;SDS011;21993;42.672;23.296;2023-01-06T14:20:06;4.73;;;2.60;;
35891;SDS011;21993;42.672;23.296;2023-01-06T14:25:39;7.57;;;3.20;;
35891;SDS011;21993;42.672;23.296;2023-01-06T14:28:15;4.27;;;2.50;;
35891;SDS011;21993;42.672;23.296;2023-01-06T14:30:49;4.77;;;3.10;;
35891;SDS011;21993;42.672;23.296;2023-01-06T14:35:53;3.90;;;2.93;;
35891;SDS011;21993;42.672;23.296;2023-01-06T14:38:28;6.67;;;3.30;;
35891;SDS011;21993;42.672;23.296;2023-01-06T14:40:59;5.97;;;3.17;;
35891;SDS011;21993;42.672;23.296;2023-01-06T14:46:17;11.60;;;3.53;;
35891;SDS011;21993;42.672;23.296;2023-01-06T14:48:51;4.07;;;3.10;;
35891;SDS011;21993;42.672;23.296;2023-01-06T14:51:20;5.23;;;3.50;;
35891;SDS011;21993;42.672;23.296;2023-01-06T14:53:48;4.47;;;3.30;;
35891;SDS011;21993;42.672;23.296;2023-01-06T14:56:19;5.93;;;3.10;;
35891;SDS011;21993;42.672;23.296;2023-01-06T14:58:47;4.10;;;3.00;;
35891;SDS011;21993;42.672;23.296;2023-01-06T15:01:18;4.40;;;3.10;;
35891;SDS011;21993;42.672;23.296;2023-01-06T15:03:56;5.97;;;3.07;;
35891;SDS011;21993;42.672;23.296;2023-01-06T15:06:25;3.80;;;3.20;;
35891;SDS011;21993;42.672;23.296;2023-01-06T15:08:52;4.40;;;3.10;;
35891;SDS011;21993;42.672;23.296;2023-01-06T15:11:23;7.23;;;3.10;;
35891;SDS011;21993;42.672;23.296;2023-01-06T15:13:54;5.87;;;3.30;;
35891;SDS011;21993;42.672;23.296;2023-01-06T15:16:22;4.90;;;3.70;;
35891;SDS011;21993;42.672;23.296;2023-01-06T15:18:49;4.67;;;3.10;;
35891;SDS011;21993;42.672;23.296;2023-01-06T15:21:17;6.63;;;3.60;;
35891;SDS011;21993;42.672;23.296;2023-01-06T15:23:44;3.83;;;3.13;;
35891;SDS011;21993;42.672;23.296;2023-01-06T15:26:27;10.57;;;3.33;;
35891;SDS011;21993;42.672;23.296;2023-01-06T15:29:03;7.10;;;3.60;;
35891;SDS011;21993;42.672;23.296;2023-01-06T15:31:31;3.53;;;3.13;;
35891;SDS011;21993;42.672;23.296;2023-01-06T15:34:01;5.00;;;3.17;;
35891;SDS011;21993;42.672;23.296;2023-01-06T15:36:31;6.70;;;3.13;;
35891;SDS011;21993;42.672;23.296;2023-01-06T15:38:59;4.40;;;3.33;;
35891;SDS011;21993;42.672;23.296;2023-01-06T15:41:26;4.97;;;3.37;;
35891;SDS011;21993;42.672;23.296;2023-01-06T15:44:02;5.90;;;3.37;;
35891;SDS011;21993;42.672;23.296;2023-01-06T15:46:45;5.70;;;3.40;;
35891;SDS011;21993;42.672;23.296;2023-01-06T15:49:17;4.80;;;2.70;;
35891;SDS011;21993;42.672;23.296;2023-01-06T15:51:55;3.43;;;3.07;;
35891;SDS011;21993;42.672;23.296;2023-01-06T15:54:25;5.37;;;3.43;;
35891;SDS011;21993;42.672;23.296;2023-01-06T15:56:54;5.57;;;3.77;;
35891;SDS011;21993;42.672;23.296;2023-01-06T15:59:19;6.87;;;4.00;;
35891;SDS011;21993;42.672;23.296;2023-01-06T16:01:49;7.13;;;4.03;;
35891;SDS011;21993;42.672;23.296;2023-01-06T16:04:17;9.50;;;3.87;;
35891;SDS011;21993;42.672;23.296;2023-01-06T16:06:44;5.10;;;3.90;;
35891;SDS011;21993;42.672;23.296;2023-01-06T16:11:57;7.63;;;3.70;;
35891;SDS011;21993;42.672;23.296;2023-01-06T16:14:35;7.63;;;3.27;;
35891;SDS011;21993;42.672;23.296;2023-01-06T16:17:10;6.20;;;3.20;;
35891;SDS011;21993;42.672;23.296;2023-01-06T16:19:47;7.73;;;3.93;;
35891;SDS011;21993;42.672;23.296;2023-01-06T16:22:22;6.50;;;4.00;;
35891;SDS011;21993;42.672;23.296;2023-01-06T16:24:51;7.40;;;3.63;;
35891;SDS011;21993;42.672;23.296;2023-01-06T16:27:21;4.63;;;3.20;;
35891;SDS011;21993;42.672;23.296;2023-01-06T16:30:05;4.77;;;3.53;;
35891;SDS011;21993;42.672;23.296;2023-01-06T16:32:50;12.07;;;3.87;;
35891;SDS011;21993;42.672;23.296;2023-01-06T16:35:18;9.27;;;3.47;;
35891;SDS011;21993;42.672;23.296;2023-01-06T16:37:45;6.67;;;4.40;;
35891;SDS011;21993;42.672;23.296;2023-01-06T16:40:12;7.37;;;4.30;;
35891;SDS011;21993;42.672;23.296;2023-01-06T16:42:38;7.60;;;4.47;;
35891;SDS011;21993;42.672;23.296;2023-01-06T16:45:05;7.73;;;4.57;;
35891;SDS011;21993;42.672;23.296;2023-01-06T16:47:32;7.70;;;4.67;;
35891;SDS011;21993;42.672;23.296;2023-01-06T16:49:59;6.40;;;4.27;;
35891;SDS011;21993;42.672;23.296;2023-01-06T16:52:26;8.40;;;4.00;;
35891;SDS011;21993;42.672;23.296;2023-01-06T16:54:51;6.23;;;4.17;;
35891;SDS011;21993;42.672;23.296;2023-01-06T16:57:18;5.93;;;4.17;;
35891;SDS011;21993;42.672;23.296;2023-01-06T16:59:44;5.93;;;3.83;;
35891;SDS011;21993;42.672;23.296;2023-01-06T17:02:12;7.77;;;3.97;;
35891;SDS011;21993;42.672;23.296;2023-01-06T17:04:39;7.90;;;3.93;;
35891;SDS011;21993;42.672;23.296;2023-01-06T17:07:12;5.93;;;4.20;;
35891;SDS011;21993;42.672;23.296;2023-01-06T17:09:39;7.53;;;3.83;;
35891;SDS011;21993;42.672;23.296;2023-01-06T17:12:12;4.80;;;3.73;;
35891;SDS011;21993;42.672;23.296;2023-01-06T17:14:57;7.97;;;3.53;;
35891;SDS011;21993;42.672;23.296;2023-01-06T17:17:24;5.90;;;3.70;;
35891;SDS011;21993;42.672;23.296;2023-01-06T17:19:49;5.53;;;3.40;;
35891;SDS011;21993;42.672;23.296;2023-01-06T17:22:28;5.60;;;3.97;;